sensor_id;sensor_type;location;lat;lon;timestamp;pressure;altitude;pressure_sealevel;temperature;humidity
23253;BME280;11795;47.054;15.408;2023-06-01T00:00:00;97570;;;18.3;69.1
23253;BME280;11795;47.054;15.408;2023-06-01T00:02:00;97570;;;18.5;68.6
23253;BME280;11795;47.054;15.408;2023-06-01T00:04:00;97580;;;18.4;69.0
23253;BME280;11795;47.054;15.408;2023-06-01T00:06:00;97580;;;18.3;69.5
23253;BME280;11795;47.054;15.408;2023-06-01T00:08:00;97580;;;18.4;69.0
23253;BME280;11795;47.054;15.408;2023-06-01T00:10:00;97580;;;18.3;68.9
23253;BME280;11795;47.054;15.408;2023-06-01T00:12:00;97570;;;18.5;67.4
23253;BME280;11795;47.054;15.408;2023-06-01T00:14:00;97580;;;18.3;67.2
23253;BME280;11795;47.054;15.408;2023-06-01T00:16:00;97570;;;18.2;66.9
23253;BME280;11795;47.054;15.408;2023-06-01T00:18:01;97580;;;18.4;65.7
23253;BME280;11795;47.054;15.408;2023-06-01T00:20:01;97580;;;18.3;66.0
23253;BME280;11795;47.054;15.408;2023-06-01T00:22:00;97570;;;18.5;65.1
23253;BME280;11795;47.054;15.408;2023-06-01T00:24:01;97580;;;18.4;65.3
23253;BME280;11795;47.054;15.408;2023-06-01T00:26:01;97580;;;18.3;65.6
23253;BME280;11795;47.054;15.408;2023-06-01T00:28:02;97570;;;18.4;65.4
23253;BME280;11795;47.054;15.408;2023-06-01T00:30:00;97580;;;18.3;66.1
23253;BME280;11795;47.054;15.408;2023-06-01T00:32:00;97570;;;18.5;65.9
23253;BME280;11795;47.054;15.408;2023-06-01T00:34:00;97570;;;18.3;66.4
23253;BME280;11795;47.054;15.408;2023-06-01T00:36:01;97570;;;18.2;66.8
23253;BME280;11795;47.054;15.408;2023-06-01T00:38:00;97560;;;18.4;66.4
23253;BME280;11795;47.054;15.408;2023-06-01T00:40:00;97560;;;18.2;67.1
23253;BME280;11795;47.054;15.408;2023-06-01T00:42:02;97570;;;18.4;66.6
23253;BME280;11795;47.054;15.408;2023-06-01T00:44:00;97570;;;18.2;67.1
23253;BME280;11795;47.054;15.408;2023-06-01T00:46:00;97560;;;18.1;67.4
23253;BME280;11795;47.054;15.408;2023-06-01T00:48:01;97560;;;18.3;66.8
23253;BME280;11795;47.054;15.408;2023-06-01T00:50:00;97560;;;18.2;67.3
23253;BME280;11795;47.054;15.408;2023-06-01T00:52:00;97560;;;18.4;66.8
23253;BME280;11795;47.054;15.408;2023-06-01T00:54:00;97560;;;18.2;67.2
23253;BME280;11795;47.054;15.408;2023-06-01T00:56:00;97560;;;18.1;67.4
23253;BME280;11795;47.054;15.408;2023-06-01T00:58:00;97560;;;18.3;66.9
23253;BME280;11795;47.054;15.408;2023-06-01T01:00:02;97560;;;18.2;67.4
23253;BME280;11795;47.054;15.408;2023-06-01T01:02:00;97560;;;18.4;66.8
23253;BME280;11795;47.054;15.408;2023-06-01T01:04:00;97560;;;18.2;67.2
23253;BME280;11795;47.054;15.408;2023-06-01T01:06:07;97560;;;18.4;66.9
23253;BME280;11795;47.054;15.408;2023-06-01T01:08:07;97560;;;18.2;67.3
23253;BME280;11795;47.054;15.408;2023-06-01T01:10:07;97560;;;18.1;67.5
23253;BME280;11795;47.054;15.408;2023-06-01T01:12:06;97560;;;18.3;66.9
23253;BME280;11795;47.054;15.408;2023-06-01T01:14:04;97560;;;18.2;67.2
23253;BME280;11795;47.054;15.408;2023-06-01T01:16:04;97560;;;18.1;67.5
23253;BME280;11795;47.054;15.408;2023-06-01T01:18:03;97560;;;18.3;66.9
23253;BME280;11795;47.054;15.408;2023-06-01T01:20:03;97560;;;18.1;67.3
23253;BME280;11795;47.054;15.408;2023-06-01T01:22:22;97560;;;18.3;66.9
23253;BME280;11795;47.054;15.408;2023-06-01T01:24:15;97560;;;18.1;67.4
23253;BME280;11795;47.054;15.408;2023-06-01T01:26:10;97560;;;18.4;66.8
23253;BME280;11795;47.054;15.408;2023-06-01T01:28:08;97560;;;18.2;66.9
23253;BME280;11795;47.054;15.408;2023-06-01T01:30:02;97560;;;18.2;67.1
23253;BME280;11795;47.054;15.408;2023-06-01T01:32:03;97560;;;18.3;66.6
23253;BME280;11795;47.054;15.408;2023-06-01T01:34:01;97560;;;18.2;66.4
23253;BME280;11795;47.054;15.408;2023-06-01T01:36:01;97550;;;18.1;66.5
23253;BME280;11795;47.054;15.408;2023-06-01T01:38:00;97550;;;18.2;65.7
23253;BME280;11795;47.054;15.408;2023-06-01T01:40:00;97550;;;18.1;65.9
23253;BME280;11795;47.054;15.408;2023-06-01T01:42:00;97550;;;18.3;65.4
23253;BME280;11795;47.054;15.408;2023-06-01T01:44:01;97550;;;18.1;65.4
23253;BME280;11795;47.054;15.408;2023-06-01T01:46:07;97550;;;18.0;65.6
23253;BME280;11795;47.054;15.408;2023-06-01T01:48:06;97550;;;18.2;64.9
23253;BME280;11795;47.054;15.408;2023-06-01T01:50:04;97550;;;18.0;65.3
23253;BME280;11795;47.054;15.408;2023-06-01T01:52:05;97550;;;18.2;65.0
23253;BME280;11795;47.054;15.408;2023-06-01T01:54:02;97550;;;18.1;65.1
23253;BME280;11795;47.054;15.408;2023-06-01T01:56:01;97540;;;17.9;65.6
23253;BME280;11795;47.054;15.408;2023-06-01T01:58:01;97540;;;18.1;65.2
23253;BME280;11795;47.054;15.408;2023-06-01T02:00:01;97540;;;17.9;66.0
23253;BME280;11795;47.054;15.408;2023-06-01T02:02:00;97540;;;18.1;65.9
23253;BME280;11795;47.054;15.408;2023-06-01T02:04:02;97540;;;17.9;66.4
23253;BME280;11795;47.054;15.408;2023-06-01T02:06:00;97530;;;17.8;67.1
23253;BME280;11795;47.054;15.408;2023-06-01T02:08:02;97530;;;17.9;67.3
23253;BME280;11795;47.054;15.408;2023-06-01T02:10:00;97530;;;17.8;67.8
23253;BME280;11795;47.054;15.408;2023-06-01T02:12:00;97530;;;17.9;67.9
23253;BME280;11795;47.054;15.408;2023-06-01T02:14:01;97530;;;17.8;68.1
23253;BME280;11795;47.054;15.408;2023-06-01T02:16:00;97530;;;17.7;68.8
23253;BME280;11795;47.054;15.408;2023-06-01T02:18:00;97520;;;17.8;68.9
23253;BME280;11795;47.054;15.408;2023-06-01T02:20:00;97530;;;17.6;69.6
23253;BME280;11795;47.054;15.408;2023-06-01T02:22:00;97520;;;17.7;69.5
23253;BME280;11795;47.054;15.408;2023-06-01T02:24:04;97520;;;17.6;69.7
23253;BME280;11795;47.054;15.408;2023-06-01T02:26:00;97520;;;17.5;70.1
23253;BME280;11795;47.054;15.408;2023-06-01T02:28:00;97520;;;17.6;69.5
23253;BME280;11795;47.054;15.408;2023-06-01T02:30:00;97520;;;17.4;70.4
23253;BME280;11795;47.054;15.408;2023-06-01T02:32:00;97520;;;17.5;70.1
23253;BME280;11795;47.054;15.408;2023-06-01T02:34:00;97510;;;17.5;70.0
23253;BME280;11795;47.054;15.408;2023-06-01T02:36:00;97510;;;17.4;70.3
23253;BME280;11795;47.054;15.408;2023-06-01T02:38:00;97510;;;17.5;69.6
23253;BME280;11795;47.054;15.408;2023-06-01T02:40:00;97510;;;17.4;70.2
23253;BME280;11795;47.054;15.408;2023-06-01T02:42:01;97510;;;17.5;69.9
23253;BME280;11795;47.054;15.408;2023-06-01T02:44:00;97510;;;17.4;69.8
23253;BME280;11795;47.054;15.408;2023-06-01T02:46:00;97520;;;17.2;70.0
23253;BME280;11795;47.054;15.408;2023-06-01T02:48:00;97520;;;17.4;69.0
23253;BME280;11795;47.054;15.408;2023-06-01T02:50:00;97510;;;17.2;69.4
23253;BME280;11795;47.054;15.408;2023-06-01T02:52:00;97510;;;17.3;69.2
23253;BME280;11795;47.054;15.408;2023-06-01T02:54:00;97510;;;17.2;68.9
23253;BME280;11795;47.054;15.408;2023-06-01T02:56:00;97510;;;17.1;69.3
23253;BME280;11795;47.054;15.408;2023-06-01T02:58:00;97510;;;17.3;68.5
23253;BME280;11795;47.054;15.408;2023-06-01T03:00:01;97510;;;17.1;68.9
23253;BME280;11795;47.054;15.408;2023-06-01T03:02:00;97500;;;17.1;69.6
23253;BME280;11795;47.054;15.408;2023-06-01T03:04:04;97500;;;17.1;69.9
23253;BME280;11795;47.054;15.408;2023-06-01T03:06:02;97500;;;16.9;70.7
23253;BME280;11795;47.054;15.408;2023-06-01T03:08:00;97500;;;17.0;70.8
23253;BME280;11795;47.054;15.408;2023-06-01T03:10:00;97500;;;16.8;71.5
23253;BME280;11795;47.054;15.408;2023-06-01T03:12:01;97500;;;16.8;71.9
23253;BME280;11795;47.054;15.408;2023-06-01T03:14:00;97500;;;16.8;71.9
23253;BME280;11795;47.054;15.408;2023-06-01T03:16:00;97510;;;16.7;72.7
23253;BME280;11795;47.054;15.408;2023-06-01T03:18:01;97500;;;16.8;72.2
23253;BME280;11795;47.054;15.408;2023-06-01T03:20:00;97500;;;16.6;72.9
23253;BME280;11795;47.054;15.408;2023-06-01T03:22:00;97510;;;16.6;72.9
23253;BME280;11795;47.054;15.408;2023-06-01T03:24:00;97510;;;16.7;72.6
23253;BME280;11795;47.054;15.408;2023-06-01T03:26:00;97510;;;16.6;72.8
23253;BME280;11795;47.054;15.408;2023-06-01T03:28:00;97510;;;16.8;72.1
23253;BME280;11795;47.054;15.408;2023-06-01T03:30:02;97510;;;16.5;72.9
23253;BME280;11795;47.054;15.408;2023-06-01T03:32:00;97510;;;16.5;73.1
23253;BME280;11795;47.054;15.408;2023-06-01T03:34:00;97510;;;16.6;72.5
23253;BME280;11795;47.054;15.408;2023-06-01T03:36:00;97510;;;16.6;72.6
23253;BME280;11795;47.054;15.408;2023-06-01T03:38:00;97510;;;16.7;72.3
23253;BME280;11795;47.054;15.408;2023-06-01T03:40:00;97510;;;16.5;73.0
23253;BME280;11795;47.054;15.408;2023-06-01T03:42:00;97510;;;16.5;73.4
23253;BME280;11795;47.054;15.408;2023-06-01T03:44:00;97510;;;16.5;73.2
23253;BME280;11795;47.054;15.408;2023-06-01T03:46:00;97520;;;16.4;73.5
23253;BME280;11795;47.054;15.408;2023-06-01T03:48:00;97520;;;16.5;73.3
23253;BME280;11795;47.054;15.408;2023-06-01T03:50:01;97520;;;16.4;73.9
23253;BME280;11795;47.054;15.408;2023-06-01T03:52:00;97520;;;16.4;74.0
23253;BME280;11795;47.054;15.408;2023-06-01T03:54:00;97520;;;16.5;73.8
23253;BME280;11795;47.054;15.408;2023-06-01T03:56:01;97520;;;16.5;73.8
23253;BME280;11795;47.054;15.408;2023-06-01T03:58:03;97520;;;16.7;73.0
23253;BME280;11795;47.054;15.408;2023-06-01T04:00:02;97510;;;16.5;73.3
23253;BME280;11795;47.054;15.408;2023-06-01T04:02:03;97520;;;16.5;73.7
23253;BME280;11795;47.054;15.408;2023-06-01T04:04:01;97510;;;16.5;73.3
23253;BME280;11795;47.054;15.408;2023-06-01T04:06:02;97510;;;16.5;73.5
23253;BME280;11795;47.054;15.408;2023-06-01T04:08:00;97510;;;16.7;72.7
23253;BME280;11795;47.054;15.408;2023-06-01T04:10:00;97510;;;16.5;73.1
23253;BME280;11795;47.054;15.408;2023-06-01T04:12:03;97520;;;16.6;73.1
23253;BME280;11795;47.054;15.408;2023-06-01T04:14:00;97520;;;16.7;72.5
23253;BME280;11795;47.054;15.408;2023-06-01T04:16:00;97510;;;16.7;72.6
23253;BME280;11795;47.054;15.408;2023-06-01T04:18:00;97510;;;16.9;71.5
23253;BME280;11795;47.054;15.408;2023-06-01T04:20:00;97510;;;16.8;71.7
23253;BME280;11795;47.054;15.408;2023-06-01T04:22:00;97510;;;16.7;71.9
23253;BME280;11795;47.054;15.408;2023-06-01T04:24:00;97510;;;16.9;71.5
23253;BME280;11795;47.054;15.408;2023-06-01T04:26:00;97510;;;16.8;71.8
23253;BME280;11795;47.054;15.408;2023-06-01T04:28:00;97500;;;17.0;71.1
23253;BME280;11795;47.054;15.408;2023-06-01T04:30:01;97500;;;17.0;71.4
23253;BME280;11795;47.054;15.408;2023-06-01T04:32:00;97500;;;17.0;71.5
23253;BME280;11795;47.054;15.408;2023-06-01T04:34:01;97500;;;17.2;70.6
23253;BME280;11795;47.054;15.408;2023-06-01T04:36:01;97500;;;17.2;70.7
23253;BME280;11795;47.054;15.408;2023-06-01T04:38:01;97500;;;17.5;69.4
23253;BME280;11795;47.054;15.408;2023-06-01T04:40:00;97500;;;17.3;69.9
23253;BME280;11795;47.054;15.408;2023-06-01T04:42:02;97500;;;17.4;70.0
23253;BME280;11795;47.054;15.408;2023-06-01T04:44:01;97500;;;17.5;69.4
23253;BME280;11795;47.054;15.408;2023-06-01T04:46:04;97500;;;17.5;69.5
23253;BME280;11795;47.054;15.408;2023-06-01T04:48:00;97500;;;17.8;68.6
23253;BME280;11795;47.054;15.408;2023-06-01T04:50:01;97500;;;17.7;68.8
23253;BME280;11795;47.054;15.408;2023-06-01T04:52:00;97500;;;17.7;68.9
23253;BME280;11795;47.054;15.408;2023-06-01T04:54:00;97500;;;17.8;68.5
23253;BME280;11795;47.054;15.408;2023-06-01T04:56:00;97500;;;17.8;68.6
23253;BME280;11795;47.054;15.408;2023-06-01T04:58:00;97500;;;18.1;67.8
23253;BME280;11795;47.054;15.408;2023-06-01T05:00:00;97500;;;18.1;68.0
23253;BME280;11795;47.054;15.408;2023-06-01T05:02:00;97500;;;18.1;67.9
23253;BME280;11795;47.054;15.408;2023-06-01T05:04:00;97500;;;18.4;66.1
23253;BME280;11795;47.054;15.408;2023-06-01T05:06:00;97490;;;18.3;66.3
23253;BME280;11795;47.054;15.408;2023-06-01T05:08:00;97500;;;18.6;65.8
23253;BME280;11795;47.054;15.408;2023-06-01T05:10:07;97500;;;18.6;65.6
23253;BME280;11795;47.054;15.408;2023-06-01T05:12:00;97500;;;18.6;65.7
23253;BME280;11795;47.054;15.408;2023-06-01T05:14:02;97500;;;18.9;65.1
23253;BME280;11795;47.054;15.408;2023-06-01T05:16:00;97500;;;18.8;65.3
23253;BME280;11795;47.054;15.408;2023-06-01T05:18:00;97500;;;19.1;64.4
23253;BME280;11795;47.054;15.408;2023-06-01T05:20:00;97500;;;19.1;64.2
23253;BME280;11795;47.054;15.408;2023-06-01T05:22:00;97500;;;19.1;64.2
23253;BME280;11795;47.054;15.408;2023-06-01T05:24:00;97500;;;19.4;63.2
23253;BME280;11795;47.054;15.408;2023-06-01T05:26:02;97510;;;19.4;62.7
23253;BME280;11795;47.054;15.408;2023-06-01T05:28:00;97510;;;19.5;62.3
23253;BME280;11795;47.054;15.408;2023-06-01T05:30:00;97500;;;19.5;62.2
23253;BME280;11795;47.054;15.408;2023-06-01T05:32:00;97500;;;19.6;62.3
23253;BME280;11795;47.054;15.408;2023-06-01T05:34:00;97500;;;19.7;61.5
23253;BME280;11795;47.054;15.408;2023-06-01T05:36:01;97500;;;19.8;61.7
23253;BME280;11795;47.054;15.408;2023-06-01T05:38:00;97500;;;20.0;60.6
23253;BME280;11795;47.054;15.408;2023-06-01T05:40:00;97500;;;19.9;60.7
23253;BME280;11795;47.054;15.408;2023-06-01T05:42:00;97500;;;19.9;60.4
23253;BME280;11795;47.054;15.408;2023-06-01T05:44:00;97500;;;20.0;60.6
23253;BME280;11795;47.054;15.408;2023-06-01T05:46:00;97500;;;20.0;59.9
23253;BME280;11795;47.054;15.408;2023-06-01T05:48:00;97500;;;20.1;59.9
23253;BME280;11795;47.054;15.408;2023-06-01T05:50:00;97500;;;20.0;60.5
23253;BME280;11795;47.054;15.408;2023-06-01T05:52:00;97500;;;20.0;60.3
23253;BME280;11795;47.054;15.408;2023-06-01T05:54:00;97490;;;20.3;60.2
23253;BME280;11795;47.054;15.408;2023-06-01T05:56:00;97490;;;20.4;60.1
23253;BME280;11795;47.054;15.408;2023-06-01T05:58:00;97500;;;20.7;59.0
23253;BME280;11795;47.054;15.408;2023-06-01T06:00:00;97500;;;20.7;58.9
23253;BME280;11795;47.054;15.408;2023-06-01T06:02:00;97500;;;20.8;58.2
23253;BME280;11795;47.054;15.408;2023-06-01T06:04:00;97500;;;20.9;57.3
23253;BME280;11795;47.054;15.408;2023-06-01T06:06:00;97500;;;20.8;57.1
23253;BME280;11795;47.054;15.408;2023-06-01T06:08:01;97490;;;21.1;57.0
23253;BME280;11795;47.054;15.408;2023-06-01T06:10:00;97500;;;21.1;57.2
23253;BME280;11795;47.054;15.408;2023-06-01T06:12:01;97500;;;21.1;56.0
23253;BME280;11795;47.054;15.408;2023-06-01T06:14:00;97500;;;21.1;56.3
23253;BME280;11795;47.054;15.408;2023-06-01T06:16:00;97500;;;21.1;56.5
23253;BME280;11795;47.054;15.408;2023-06-01T06:18:00;97500;;;21.3;55.5
23253;BME280;11795;47.054;15.408;2023-06-01T06:20:00;97500;;;21.3;55.2
23253;BME280;11795;47.054;15.408;2023-06-01T06:22:00;97500;;;21.2;56.0
23253;BME280;11795;47.054;15.408;2023-06-01T06:24:00;97500;;;21.4;56.0
23253;BME280;11795;47.054;15.408;2023-06-01T06:26:00;97500;;;21.4;55.9
23253;BME280;11795;47.054;15.408;2023-06-01T06:28:00;97500;;;21.6;55.2
23253;BME280;11795;47.054;15.408;2023-06-01T06:30:00;97500;;;21.5;54.5
23253;BME280;11795;47.054;15.408;2023-06-01T06:32:00;97500;;;21.4;55.1
23253;BME280;11795;47.054;15.408;2023-06-01T06:34:00;97500;;;21.6;54.1
23253;BME280;11795;47.054;15.408;2023-06-01T06:36:00;97500;;;21.6;54.2
23253;BME280;11795;47.054;15.408;2023-06-01T06:38:01;97500;;;21.7;53.9
23253;BME280;11795;47.054;15.408;2023-06-01T06:40:00;97510;;;21.5;54.3
23253;BME280;11795;47.054;15.408;2023-06-01T06:42:02;97500;;;21.4;54.4
23253;BME280;11795;47.054;15.408;2023-06-01T06:44:00;97500;;;21.4;54.8
23253;BME280;11795;47.054;15.408;2023-06-01T06:46:00;97500;;;21.3;55.0
23253;BME280;11795;47.054;15.408;2023-06-01T06:48:00;97500;;;21.5;54.7
23253;BME280;11795;47.054;15.408;2023-06-01T06:50:01;97500;;;21.6;54.8
23253;BME280;11795;47.054;15.408;2023-06-01T06:52:00;97490;;;21.7;55.0
23253;BME280;11795;47.054;15.408;2023-06-01T06:54:02;97500;;;22.0;54.0
23253;BME280;11795;47.054;15.408;2023-06-01T06:56:00;97500;;;22.0;53.8
23253;BME280;11795;47.054;15.408;2023-06-01T06:58:01;97500;;;22.3;53.0
23253;BME280;11795;47.054;15.408;2023-06-01T07:00:00;97500;;;22.5;54.0
23253;BME280;11795;47.054;15.408;2023-06-01T07:02:00;97490;;;22.6;53.9
23253;BME280;11795;47.054;15.408;2023-06-01T07:04:00;97490;;;23.0;51.4
23253;BME280;11795;47.054;15.408;2023-06-01T07:06:00;97490;;;23.0;52.7
23253;BME280;11795;47.054;15.408;2023-06-01T07:08:01;97490;;;23.3;50.9
23253;BME280;11795;47.054;15.408;2023-06-01T07:10:00;97490;;;23.3;48.8
23253;BME280;11795;47.054;15.408;2023-06-01T07:12:00;97490;;;23.3;48.0
23253;BME280;11795;47.054;15.408;2023-06-01T07:14:00;97500;;;23.5;47.4
23253;BME280;11795;47.054;15.408;2023-06-01T07:16:00;97500;;;23.5;45.3
23253;BME280;11795;47.054;15.408;2023-06-01T07:18:00;97500;;;23.5;44.4
23253;BME280;11795;47.054;15.408;2023-06-01T07:20:02;97490;;;23.5;44.7
23253;BME280;11795;47.054;15.408;2023-06-01T07:22:00;97490;;;23.6;45.7
23253;BME280;11795;47.054;15.408;2023-06-01T07:24:01;97490;;;23.9;45.3
23253;BME280;11795;47.054;15.408;2023-06-01T07:26:00;97500;;;23.9;45.3
23253;BME280;11795;47.054;15.408;2023-06-01T07:28:07;97500;;;24.0;42.6
23253;BME280;11795;47.054;15.408;2023-06-01T07:30:00;97500;;;24.0;43.6
23253;BME280;11795;47.054;15.408;2023-06-01T07:32:00;97500;;;24.2;42.0
23253;BME280;11795;47.054;15.408;2023-06-01T07:34:00;97500;;;24.4;40.6
23253;BME280;11795;47.054;15.408;2023-06-01T07:36:00;97500;;;24.5;40.1
23253;BME280;11795;47.054;15.408;2023-06-01T07:38:00;97500;;;24.7;40.6
23253;BME280;11795;47.054;15.408;2023-06-01T07:40:00;97500;;;24.8;40.9
23253;BME280;11795;47.054;15.408;2023-06-01T07:42:01;97500;;;24.8;40.6
23253;BME280;11795;47.054;15.408;2023-06-01T07:44:00;97500;;;25.0;40.5
23253;BME280;11795;47.054;15.408;2023-06-01T07:46:00;97490;;;24.7;40.7
23253;BME280;11795;47.054;15.408;2023-06-01T07:48:01;97500;;;24.7;40.5
23253;BME280;11795;47.054;15.408;2023-06-01T07:50:00;97500;;;24.9;41.6
23253;BME280;11795;47.054;15.408;2023-06-01T07:52:01;97490;;;25.0;40.5
23253;BME280;11795;47.054;15.408;2023-06-01T07:54:01;97500;;;25.4;40.1
23253;BME280;11795;47.054;15.408;2023-06-01T07:56:01;97490;;;25.4;39.5
23253;BME280;11795;47.054;15.408;2023-06-01T07:58:00;97490;;;25.5;39.7
23253;BME280;11795;47.054;15.408;2023-06-01T08:00:01;97490;;;25.8;38.9
23253;BME280;11795;47.054;15.408;2023-06-01T08:02:00;97490;;;25.9;38.8
23253;BME280;11795;47.054;15.408;2023-06-01T08:04:02;97490;;;25.8;37.6
23253;BME280;11795;47.054;15.408;2023-06-01T08:06:05;97490;;;25.7;38.8
23253;BME280;11795;47.054;15.408;2023-06-01T08:08:00;97490;;;25.7;39.8
23253;BME280;11795;47.054;15.408;2023-06-01T08:10:01;97490;;;25.5;39.8
23253;BME280;11795;47.054;15.408;2023-06-01T08:12:01;97490;;;25.4;38.7
23253;BME280;11795;47.054;15.408;2023-06-01T08:14:02;97490;;;25.3;39.0
23253;BME280;11795;47.054;15.408;2023-06-01T08:16:00;97490;;;25.1;39.9
23253;BME280;11795;47.054;15.408;2023-06-01T08:18:00;97490;;;25.1;40.9
23253;BME280;11795;47.054;15.408;2023-06-01T08:20:00;97480;;;25.1;39.9
23253;BME280;11795;47.054;15.408;2023-06-01T08:22:00;97490;;;25.0;40.5
23253;BME280;11795;47.054;15.408;2023-06-01T08:24:01;97480;;;25.2;40.2
23253;BME280;11795;47.054;15.408;2023-06-01T08:26:00;97480;;;25.0;40.5
23253;BME280;11795;47.054;15.408;2023-06-01T08:28:00;97480;;;25.0;41.2
23253;BME280;11795;47.054;15.408;2023-06-01T08:30:00;97480;;;25.0;40.9
23253;BME280;11795;47.054;15.408;2023-06-01T08:32:00;97480;;;25.0;40.8
23253;BME280;11795;47.054;15.408;2023-06-01T08:34:00;97480;;;25.0;40.5
23253;BME280;11795;47.054;15.408;2023-06-01T08:36:00;97480;;;25.1;41.4
23253;BME280;11795;47.054;15.408;2023-06-01T08:38:00;97470;;;25.4;40.3
23253;BME280;11795;47.054;15.408;2023-06-01T08:40:00;97470;;;25.5;40.5
23253;BME280;11795;47.054;15.408;2023-06-01T08:42:07;97480;;;25.5;39.6
23253;BME280;11795;47.054;15.408;2023-06-01T08:44:03;97470;;;25.4;39.5
23253;BME280;11795;47.054;15.408;2023-06-01T08:46:01;97480;;;25.3;40.3
23253;BME280;11795;47.054;15.408;2023-06-01T08:48:01;97470;;;25.2;39.9
23253;BME280;11795;47.054;15.408;2023-06-01T08:50:00;97470;;;25.2;40.2
23253;BME280;11795;47.054;15.408;2023-06-01T08:52:04;97480;;;25.1;39.9
23253;BME280;11795;47.054;15.408;2023-06-01T08:54:02;97470;;;25.1;40.1
23253;BME280;11795;47.054;15.408;2023-06-01T08:56:01;97480;;;25.1;40.7
23253;BME280;11795;47.054;15.408;2023-06-01T08:58:01;97470;;;25.0;39.8
23253;BME280;11795;47.054;15.408;2023-06-01T09:00:00;97480;;;24.9;39.9
23253;BME280;11795;47.054;15.408;2023-06-01T09:02:00;97470;;;24.8;40.7
23253;BME280;11795;47.054;15.408;2023-06-01T09:04:00;97470;;;24.9;40.6
23253;BME280;11795;47.054;15.408;2023-06-01T09:06:00;97470;;;25.0;40.8
23253;BME280;11795;47.054;15.408;2023-06-01T09:08:00;97470;;;25.0;40.0
23253;BME280;11795;47.054;15.408;2023-06-01T09:10:01;97470;;;25.0;40.0
23253;BME280;11795;47.054;15.408;2023-06-01T09:14:00;97460;;;25.2;40.1
23253;BME280;11795;47.054;15.408;2023-06-01T09:16:00;97470;;;25.3;40.0
23253;BME280;11795;47.054;15.408;2023-06-01T09:18:05;97470;;;25.3;39.6
23253;BME280;11795;47.054;15.408;2023-06-01T09:20:00;97470;;;25.0;40.2
23253;BME280;11795;47.054;15.408;2023-06-01T09:22:00;97460;;;24.9;39.7
23253;BME280;11795;47.054;15.408;2023-06-01T09:24:19;97460;;;25.1;40.7
23253;BME280;11795;47.054;15.408;2023-06-01T09:26:04;97460;;;25.2;41.1
23253;BME280;11795;47.054;15.408;2023-06-01T09:28:01;97460;;;25.3;40.1
23253;BME280;11795;47.054;15.408;2023-06-01T09:30:00;97460;;;25.5;39.5
23253;BME280;11795;47.054;15.408;2023-06-01T09:32:00;97460;;;25.6;40.1
23253;BME280;11795;47.054;15.408;2023-06-01T09:34:01;97450;;;25.9;39.9
23253;BME280;11795;47.054;15.408;2023-06-01T09:36:00;97450;;;25.8;38.6
23253;BME280;11795;47.054;15.408;2023-06-01T09:38:03;97450;;;25.7;40.2
23253;BME280;11795;47.054;15.408;2023-06-01T09:40:00;97450;;;25.8;39.7
23253;BME280;11795;47.054;15.408;2023-06-01T09:42:02;97460;;;25.7;39.5
23253;BME280;11795;47.054;15.408;2023-06-01T09:44:00;97460;;;25.7;38.2
23253;BME280;11795;47.054;15.408;2023-06-01T09:46:04;97450;;;25.7;38.7
23253;BME280;11795;47.054;15.408;2023-06-01T09:48:17;97450;;;25.9;38.8
23253;BME280;11795;47.054;15.408;2023-06-01T09:50:03;97450;;;25.9;39.3
23253;BME280;11795;47.054;15.408;2023-06-01T09:52:10;97440;;;25.6;39.9
23253;BME280;11795;47.054;15.408;2023-06-01T09:54:00;97450;;;25.8;39.4
23253;BME280;11795;47.054;15.408;2023-06-01T09:56:01;97440;;;25.7;39.2
23253;BME280;11795;47.054;15.408;2023-06-01T09:58:17;97440;;;25.5;38.8
23253;BME280;11795;47.054;15.408;2023-06-01T10:00:01;97440;;;25.5;39.6
23253;BME280;11795;47.054;15.408;2023-06-01T10:02:02;97440;;;25.6;40.8
23253;BME280;11795;47.054;15.408;2023-06-01T10:04:02;97440;;;25.7;39.7
23253;BME280;11795;47.054;15.408;2023-06-01T10:06:02;97440;;;25.8;39.9
23253;BME280;11795;47.054;15.408;2023-06-01T10:08:01;97440;;;25.7;40.8
23253;BME280;11795;47.054;15.408;2023-06-01T10:10:02;97440;;;26.1;39.6
23253;BME280;11795;47.054;15.408;2023-06-01T10:12:02;97440;;;26.1;40.1
23253;BME280;11795;47.054;15.408;2023-06-01T10:14:01;97430;;;26.1;40.4
23253;BME280;11795;47.054;15.408;2023-06-01T10:16:00;97430;;;26.0;39.6
23253;BME280;11795;47.054;15.408;2023-06-01T10:18:00;97430;;;25.7;40.4
23253;BME280;11795;47.054;15.408;2023-06-01T10:20:01;97420;;;25.8;40.6
23253;BME280;11795;47.054;15.408;2023-06-01T10:22:02;97420;;;25.7;42.5
23253;BME280;11795;47.054;15.408;2023-06-01T10:24:00;97420;;;26.1;40.4
23253;BME280;11795;47.054;15.408;2023-06-01T10:26:06;97420;;;26.3;40.2
23253;BME280;11795;47.054;15.408;2023-06-01T10:28:01;97420;;;26.2;39.9
23253;BME280;11795;47.054;15.408;2023-06-01T10:30:00;97420;;;26.2;38.9
23253;BME280;11795;47.054;15.408;2023-06-01T10:32:00;97410;;;26.1;39.4
23253;BME280;11795;47.054;15.408;2023-06-01T10:34:00;97410;;;26.3;40.2
23253;BME280;11795;47.054;15.408;2023-06-01T10:36:01;97420;;;26.4;39.1
23253;BME280;11795;47.054;15.408;2023-06-01T10:40:18;97410;;;26.4;39.3
23253;BME280;11795;47.054;15.408;2023-06-01T10:44:00;97400;;;26.5;39.7
23253;BME280;11795;47.054;15.408;2023-06-01T10:46:00;97410;;;26.6;38.3
23253;BME280;11795;47.054;15.408;2023-06-01T10:48:01;97400;;;26.6;39.3
23253;BME280;11795;47.054;15.408;2023-06-01T10:50:08;97400;;;26.9;37.2
23253;BME280;11795;47.054;15.408;2023-06-01T10:56:18;97390;;;26.5;37.9
23253;BME280;11795;47.054;15.408;2023-06-01T11:00:12;97400;;;26.5;38.0
23253;BME280;11795;47.054;15.408;2023-06-01T11:02:03;97390;;;26.4;36.3
23253;BME280;11795;47.054;15.408;2023-06-01T11:04:01;97390;;;26.1;36.7
23253;BME280;11795;47.054;15.408;2023-06-01T11:06:00;97390;;;26.2;37.7
23253;BME280;11795;47.054;15.408;2023-06-01T11:08:00;97380;;;26.5;37.4
23253;BME280;11795;47.054;15.408;2023-06-01T11:10:00;97380;;;26.7;36.9
23253;BME280;11795;47.054;15.408;2023-06-01T11:12:01;97380;;;26.8;37.0
23253;BME280;11795;47.054;15.408;2023-06-01T11:14:06;97370;;;26.7;36.8
23253;BME280;11795;47.054;15.408;2023-06-01T11:20:02;97370;;;27.2;36.4
23253;BME280;11795;47.054;15.408;2023-06-01T11:22:03;97370;;;27.1;36.6
23253;BME280;11795;47.054;15.408;2023-06-01T11:24:04;97360;;;26.9;35.7
23253;BME280;11795;47.054;15.408;2023-06-01T11:26:05;97370;;;26.8;36.4